Time;durP1;ratioP1;P1;durP2;ratioP2;P2;SDS_P1;SDS_P2;PMS_P1;PMS_P2;Temp;Humidity;BMP_temperature;BMP_pressure;BME280_temperature;BME280_humidity;BME280_pressure;Samples;Min_cycle;Max_cycle;Signal;HPM_P1;HPM_P2
2023/05/02 00:00:54;;;;;;;7.47;3.88;;;;;;;7.92;100.00;92376.72;5073125;28;20509;-76
2023/05/02 00:03:20;;;;;;;7.28;3.75;;;;;;;7.86;100.00;92367.38;5081720;28;20562;-77
2023/05/02 00:05:46;;;;;;;7.35;3.70;;;;;;;7.85;100.00;92368.41;5092300;28;20517;-76
2023/05/02 00:08:11;;;;;;;9.77;4.28;;;;;;;7.82;100.00;92363.75;5093003;28;20036;-76
2023/05/02 00:10:37;;;;;;;8.93;4.50;;;;;;;7.81;100.00;92364.00;5075059;28;20039;-76
2023/05/02 00:13:03;;;;;;;9.63;4.65;;;;;;;7.80;100.00;92359.84;5092282;28;20393;-76
2023/05/02 00:15:28;;;;;;;7.20;4.15;;;;;;;7.81;100.00;92364.00;5072645;28;20136;-76
2023/05/02 00:17:54;;;;;;;7.28;3.85;;;;;;;7.82;100.00;92368.94;5055000;28;20047;-76
2023/05/02 00:20:19;;;;;;;10.60;4.00;;;;;;;7.83;100.00;92364.50;5064490;28;20401;-76
2023/05/02 00:22:45;;;;;;;8.13;4.38;;;;;;;7.82;100.00;92357.75;5074416;28;20043;-76
2023/05/02 00:25:15;;;;;;;8.73;4.10;;;;;;;7.79;100.00;92359.09;5090840;28;20028;-76
2023/05/02 00:27:41;;;;;;;6.95;3.92;;;;;;;7.80;100.00;92357.25;5074892;28;20189;-76
2023/05/02 00:30:08;;;;;;;7.43;4.07;;;;;;;7.79;100.00;92353.88;5092902;28;20469;-76
2023/05/02 00:32:33;;;;;;;12.93;5.10;;;;;;;7.81;100.00;92356.19;5074624;28;20036;-76
2023/05/02 00:34:59;;;;;;;10.60;4.35;;;;;;;7.91;100.00;92350.91;5051334;28;20031;-76
2023/05/02 00:37:27;;;;;;;8.65;4.82;;;;;;;7.95;100.00;92349.31;5057917;28;20044;-77
2023/05/02 00:39:53;;;;;;;9.02;5.10;;;;;;;7.82;100.00;92355.16;5092648;28;20157;-76
2023/05/02 00:42:18;;;;;;;14.02;5.72;;;;;;;7.75;100.00;92349.47;5061654;28;20040;-76
2023/05/02 00:44:45;;;;;;;12.10;6.05;;;;;;;7.72;100.00;92348.16;5069049;28;20489;-76
2023/05/02 00:47:11;;;;;;;13.25;6.05;;;;;;;7.69;100.00;92344.28;5075461;28;20174;-76
2023/05/02 00:49:37;;;;;;;9.13;5.07;;;;;;;7.69;100.00;92344.28;5074266;28;20533;-76
2023/05/02 00:52:03;;;;;;;15.75;5.13;;;;;;;7.74;100.00;92350.50;5074223;28;20046;-76
2023/05/02 00:54:30;;;;;;;10.65;4.97;;;;;;;7.74;100.00;92340.84;5072965;28;20054;-76
2023/05/02 00:56:56;;;;;;;13.10;6.10;;;;;;;7.74;100.00;92340.84;5073839;28;20039;-76
2023/05/02 00:59:22;;;;;;;8.75;4.63;;;;;;;7.74;100.00;92338.25;5074336;28;20028;-76
2023/05/02 01:02:04;;;;;;;12.85;5.75;;;;;;;7.75;100.00;92333.84;5040651;28;20028;-76
2023/05/02 01:05:11;;;;;;;8.88;4.75;;;;;;;7.71;100.00;92338.81;5091965;28;20493;-76
2023/05/02 01:08:05;;;;;;;12.43;5.43;;;;;;;7.69;100.00;92339.06;5036271;28;20044;-76
2023/05/02 01:11:07;;;;;;;15.15;5.55;;;;;;;7.68;100.00;92342.72;5053466;28;20032;-76
2023/05/02 01:13:34;;;;;;;10.68;5.45;;;;;;;7.65;100.00;92343.25;5065519;28;20036;-76
2023/05/02 01:16:02;;;;;;;8.75;4.93;;;;;;;7.64;100.00;92346.91;5083677;28;20033;-76
2023/05/02 01:18:34;;;;;;;8.57;4.82;;;;;;;7.68;100.00;92353.16;5065538;28;20036;-76
2023/05/02 01:21:03;;;;;;;10.77;5.20;;;;;;;7.65;100.00;92353.69;5052093;28;20044;-76
2023/05/02 01:23:44;;;;;;;14.27;4.97;;;;;;;7.64;100.00;92354.75;5090597;28;20063;-77
2023/05/02 01:26:15;;;;;;;9.85;5.10;;;;;;;7.65;100.00;92352.91;5073255;28;20363;-76
2023/05/02 01:28:56;;;;;;;9.52;4.70;;;;;;;7.63;100.00;92352.41;5073229;28;20035;-76
2023/05/02 01:31:24;;;;;;;11.77;4.60;;;;;;;7.63;100.00;92355.00;5059993;28;20119;-76
2023/05/02 01:33:51;;;;;;;9.80;5.05;;;;;;;7.62;100.00;92343.81;5070335;28;20106;-76
2023/05/02 01:36:18;;;;;;;9.60;5.05;;;;;;;7.62;100.00;92356.84;5053578;28;20199;-76
2023/05/02 01:38:44;;;;;;;11.60;4.82;;;;;;;7.61;100.00;92351.88;5082662;28;20389;-76
2023/05/02 01:41:12;;;;;;;13.23;4.88;;;;;;;7.64;100.00;92352.13;5091586;28;20028;-76
2023/05/02 01:43:40;;;;;;;11.18;5.10;;;;;;;7.63;100.00;92345.38;5073276;28;20050;-76
2023/05/02 01:46:09;;;;;;;11.32;5.43;;;;;;;7.63;100.00;92349.78;5053400;28;20418;-76
2023/05/02 01:48:35;;;;;;;10.18;4.88;;;;;;;7.63;100.00;92345.38;5070043;28;20028;-76
2023/05/02 01:51:04;;;;;;;9.88;4.22;;;;;;;7.67;100.00;92356.78;5041034;28;20575;-76
2023/05/02 01:53:33;;;;;;;12.05;5.38;;;;;;;7.66;100.00;92344.06;5061642;28;20082;-76
2023/05/02 01:56:00;;;;;;;10.98;5.65;;;;;;;7.69;100.00;92348.72;5082206;28;20035;-76
2023/05/02 01:58:29;;;;;;;9.63;4.97;;;;;;;7.62;100.00;92338.59;5077105;28;20025;-76
2023/05/02 02:00:58;;;;;;;12.45;5.50;;;;;;;7.60;100.00;92340.69;5071340;28;20032;-76
2023/05/02 02:03:25;;;;;;;11.90;5.28;;;;;;;7.61;100.00;92347.47;5070818;28;20114;-76
2023/05/02 02:05:54;;;;;;;11.20;5.30;;;;;;;7.56;100.00;92334.47;5068444;28;20123;-76
2023/05/02 02:08:19;;;;;;;9.75;5.05;;;;;;;7.61;100.00;92342.25;5085674;28;20036;-76
2023/05/02 02:10:52;;;;;;;10.00;5.55;;;;;;;7.61;100.00;92337.06;5036745;28;20349;-76
2023/05/02 02:13:26;;;;;;;14.18;5.50;;;;;;;7.59;100.00;92340.94;5085826;28;20074;-76
2023/05/02 02:15:58;;;;;;;9.90;5.30;;;;;;;7.59;100.00;92339.16;5072820;28;20024;-76
2023/05/02 02:18:26;;;;;;;17.38;5.53;;;;;;;7.55;100.00;92332.91;5091007;28;20032;-76
2023/05/02 02:20:54;;;;;;;14.07;5.93;;;;;;;7.59;100.00;92336.53;5071527;28;20136;-76
2023/05/02 02:23:25;;;;;;;16.15;5.88;;;;;;;7.59;100.00;92336.53;5072838;28;20516;-76
2023/05/02 02:25:52;;;;;;;11.40;5.88;;;;;;;7.64;100.00;92336.50;5073295;28;20043;-76
2023/05/02 02:28:18;;;;;;;17.30;5.90;;;;;;;7.62;100.00;92325.56;5083076;28;20029;-76
2023/05/02 02:30:44;;;;;;;13.07;6.80;;;;;;;7.66;100.00;92331.81;5067485;28;20465;-76
2023/05/02 02:33:09;;;;;;;15.07;6.80;;;;;;;7.66;100.00;92344.06;5070646;28;20024;-76
2023/05/02 02:35:52;;;;;;;17.13;7.80;;;;;;;7.64;100.00;92335.72;5072261;28;20121;-76
2023/05/02 02:38:42;;;;;;;17.02;7.78;;;;;;;7.68;100.00;92334.91;5072806;28;20040;-76
2023/05/02 02:41:30;;;;;;;18.77;7.07;;;;;;;7.56;100.00;92324.03;5038030;28;20201;-76
2023/05/02 02:44:08;;;;;;;16.90;7.35;;;;;;;7.68;100.00;92337.53;5071108;28;20153;-76
2023/05/02 02:46:53;;;;;;;21.20;7.72;;;;;;;7.67;100.00;92327.38;5053801;28;20036;-76
2023/05/02 02:49:37;;;;;;;13.32;6.53;;;;;;;7.68;100.00;92331.53;5055755;28;20084;-76
2023/05/02 02:52:48;;;;;;;15.00;6.82;;;;;;;7.67;100.00;92330.75;5054165;28;20043;-77
2023/05/02 02:55:37;;;;;;;17.02;7.40;;;;;;;7.65;100.00;92325.03;5042270;28;20098;-76
2023/05/02 02:58:24;;;;;;;16.13;8.05;;;;;;;7.64;100.00;92331.28;5024142;28;20054;-76
2023/05/02 03:00:50;;;;;;;18.10;7.22;;;;;;;7.60;100.00;92325.06;5052324;28;20129;-76
2023/05/02 03:03:17;;;;;;;15.20;7.38;;;;;;;7.61;100.00;92328.44;5053180;28;20032;-76
2023/05/02 03:05:43;;;;;;;17.45;7.72;;;;;;;7.65;100.00;92327.63;5039022;28;20047;-76
2023/05/02 03:08:09;;;;;;;16.50;7.57;;;;;;;7.60;100.00;92325.06;5072658;28;20032;-76
2023/05/02 03:10:35;;;;;;;17.13;7.75;;;;;;;7.57;100.00;92320.41;5039365;28;20042;-76
2023/05/02 03:13:01;;;;;;;18.15;7.97;;;;;;;7.56;100.00;92321.44;5071964;28;20028;-76
2023/05/02 03:15:52;;;;;;;17.88;8.20;;;;;;;7.53;100.00;92319.38;5072460;28;20101;-76
2023/05/02 03:18:23;;;;;;;17.98;8.20;;;;;;;7.55;100.00;92321.72;5072264;28;20504;-76
2023/05/02 03:20:49;;;;;;;17.35;7.47;;;;;;;7.52;100.00;92317.84;5072052;28;20136;-76
2023/05/02 03:23:15;;;;;;;17.38;7.65;;;;;;;7.49;100.00;92313.94;5090307;28;20123;-76
2023/05/02 03:25:41;;;;;;;21.90;8.38;;;;;;;7.43;100.00;92314.22;5072290;28;20036;-76
2023/05/02 03:28:10;;;;;;;20.63;8.48;;;;;;;7.40;100.00;92304.34;5056109;28;20386;-76
2023/05/02 03:30:39;;;;;;;15.88;7.85;;;;;;;7.45;100.00;92305.13;5072270;28;20486;-76
2023/05/02 03:33:07;;;;;;;18.10;8.35;;;;;;;7.44;100.00;92311.38;5072773;28;20504;-76
2023/05/02 03:35:34;;;;;;;22.08;7.97;;;;;;;7.41;100.00;92305.94;5075858;28;20040;-76
2023/05/02 03:38:00;;;;;;;17.45;6.85;;;;;;;7.41;100.00;92308.53;5075864;28;20032;-76
2023/05/02 03:40:26;;;;;;;15.18;6.50;;;;;;;7.37;100.00;92297.09;5075467;28;20040;-76
2023/05/02 03:42:54;;;;;;;15.82;7.40;;;;;;;7.43;100.00;92303.81;5075930;28;20028;-76
2023/05/02 03:45:26;;;;;;;15.27;6.53;;;;;;;7.43;100.00;92303.81;5055391;28;20043;-76
2023/05/02 03:47:52;;;;;;;18.38;7.88;;;;;;;7.40;100.00;92304.34;5070288;28;20036;-76
2023/05/02 03:50:18;;;;;;;17.27;8.60;;;;;;;7.33;100.00;92304.66;5042207;28;20032;-76
2023/05/02 03:52:46;;;;;;;19.95;9.80;;;;;;;7.27;100.00;92301.31;5075564;28;20039;-76
2023/05/02 03:55:13;;;;;;;22.10;9.73;;;;;;;7.26;100.00;92299.75;5074891;28;20039;-76
2023/05/02 03:57:39;;;;;;;18.92;9.20;;;;;;;7.33;100.00;92306.50;5075307;28;20044;-76
2023/05/02 04:00:05;;;;;;;19.20;8.48;;;;;;;7.26;100.00;92293.78;5055773;28;20486;-76
2023/05/02 04:02:36;;;;;;;;;;;;;;;7.25;100.00;92300.00;5056773;28;20119;-76
2023/05/02 04:05:03;;;;;;;16.50;7.50;;;;;;;7.23;100.00;92294.31;5071562;28;19916;-76
2023/05/02 04:07:29;;;;;;;20.75;8.02;;;;;;;7.24;100.00;92307.06;5075392;28;20039;-76
2023/05/02 04:09:58;;;;;;;17.63;7.80;;;;;;;7.26;100.00;92306.78;5075178;28;20085;-76
2023/05/02 04:12:24;;;;;;;16.40;7.95;;;;;;;7.25;100.00;92303.41;5075397;28;20435;-76
2023/05/02 04:14:51;;;;;;;14.35;7.03;;;;;;;7.31;100.00;92293.72;5041901;28;20044;-76
2023/05/02 04:17:18;;;;;;;13.93;5.88;;;;;;;7.29;100.00;92296.63;5075167;28;20063;-76
2023/05/02 04:19:46;;;;;;;9.45;4.57;;;;;;;7.30;100.00;92303.38;5075051;28;20079;-76
2023/05/02 04:22:13;;;;;;;8.15;3.50;;;;;;;7.30;100.00;92300.78;5046157;28;20098;-76
2023/05/02 04:24:43;;;;;;;9.45;3.58;;;;;;;7.30;100.00;92295.56;5056826;28;20032;-76
2023/05/02 04:27:09;;;;;;;13.10;3.88;;;;;;;7.33;100.00;92290.88;5073097;28;20108;-76
2023/05/02 04:29:35;;;;;;;7.43;3.90;;;;;;;7.31;100.00;92296.34;5068144;28;20039;-76
2023/05/02 04:32:03;;;;;;;12.18;4.97;;;;;;;7.32;100.00;92303.13;5068527;28;20036;-76
2023/05/02 04:34:30;;;;;;;9.43;4.53;;;;;;;7.30;100.00;92303.38;5071680;28;20175;-76
2023/05/02 04:36:55;;;;;;;10.10;4.10;;;;;;;7.34;100.00;92300.22;5075421;28;20122;-79
2023/05/02 04:39:23;;;;;;;10.30;3.58;;;;;;;7.37;100.00;92304.91;5059861;28;20028;-79
2023/05/02 04:42:02;;;;;;;10.77;3.67;;;;;;;7.41;100.00;92306.69;5068903;28;20132;-78
2023/05/02 04:44:31;;;;;;;14.23;3.80;;;;;;;7.38;100.00;92306.44;5069268;28;20110;-80
2023/05/02 04:46:57;;;;;;;7.05;3.72;;;;;;;7.40;100.00;92309.56;5076237;28;20049;-79
2023/05/02 04:49:22;;;;;;;6.82;3.72;;;;;;;7.41;100.00;92306.69;5084746;28;20393;-80
2023/05/02 04:51:48;;;;;;;9.75;3.70;;;;;;;7.41;100.00;92309.31;5057667;28;20036;-80
2023/05/02 04:54:14;;;;;;;10.93;4.00;;;;;;;7.43;100.00;92314.22;5072139;28;20040;-78
2023/05/02 04:56:45;;;;;;;7.80;3.22;;;;;;;7.43;100.00;92315.03;5049099;28;20397;-79
2023/05/02 04:59:11;;;;;;;7.15;3.50;;;;;;;7.47;100.00;92312.63;5056466;28;20044;-78
2023/05/02 05:01:37;;;;;;;6.00;3.33;;;;;;;7.49;100.00;92318.38;5066157;28;20406;-78
2023/05/02 05:04:03;;;;;;;5.60;3.10;;;;;;;7.51;100.00;92322.25;5072033;28;20047;-78
2023/05/02 05:06:30;;;;;;;13.52;3.33;;;;;;;7.54;100.00;92315.72;5074475;28;20397;-78
2023/05/02 05:08:56;;;;;;;5.15;2.70;;;;;;;7.59;100.00;92323.53;5047429;28;20486;-78
2023/05/02 05:11:22;;;;;;;6.97;2.67;;;;;;;7.64;100.00;92326.06;5072016;28;20055;-78
2023/05/02 05:13:48;;;;;;;9.63;2.45;;;;;;;7.68;100.00;92321.13;5071665;28;20044;-78
2023/05/02 05:16:15;;;;;;;4.47;2.47;;;;;;;7.72;100.00;92325.50;5087255;28;20366;-79
2023/05/02 05:18:42;;;;;;;4.72;2.72;;;;;;;7.77;100.00;92326.50;5075807;28;20038;-80
2023/05/02 05:21:11;;;;;;;4.97;2.60;;;;;;;7.80;100.00;92331.19;5068511;28;20102;-79
2023/05/02 05:23:38;;;;;;;7.07;3.15;;;;;;;7.84;100.00;92330.38;5078049;28;20548;-80
2023/05/02 05:26:14;;;;;;;7.07;3.70;;;;;;;7.92;100.00;92340.22;5093770;28;20086;-79
2023/05/02 05:28:42;;;;;;;14.65;7.18;;;;;;;8.00;100.00;92331.03;5061627;28;20038;-78
2023/05/02 05:31:11;;;;;;;15.13;7.68;;;;;;;8.01;100.00;92337.78;5071442;28;20116;-79
2023/05/02 05:33:38;;;;;;;15.98;7.72;;;;;;;8.02;100.00;92334.13;5093457;28;20394;-79
2023/05/02 05:36:10;;;;;;;19.73;9.02;;;;;;;8.07;100.00;92333.31;5076583;28;21288;-79
2023/05/02 05:38:36;;;;;;;21.05;10.07;;;;;;;8.12;100.00;92341.84;5094733;28;20165;-79
2023/05/02 05:41:04;;;;;;;21.75;9.80;;;;;;;8.18;100.00;92336.63;5075091;28;20062;-78
2023/05/02 05:43:31;;;;;;;17.83;7.32;;;;;;;8.26;100.00;92343.84;5083496;28;20032;-78
2023/05/02 05:45:58;;;;;;;13.00;6.40;;;;;;;8.19;100.00;92344.16;5069643;28;20032;-80
2023/05/02 05:48:24;;;;;;;16.42;6.72;;;;;;;8.14;100.00;92349.41;5079104;28;20534;-79
2023/05/02 05:50:53;;;;;;;19.20;6.97;;;;;;;8.19;100.00;92345.97;5071828;28;20430;-79
2023/05/02 05:53:20;;;;;;;21.20;8.05;;;;;;;8.38;100.00;92338.28;5082496;28;20116;-79
2023/05/02 05:55:47;;;;;;;17.17;8.27;;;;;;;8.25;100.00;92344.91;5069972;28;20024;-80
2023/05/02 05:58:13;;;;;;;16.67;7.57;;;;;;;8.28;100.00;92344.34;5069313;28;20043;-79
2023/05/02 06:00:40;;;;;;;20.67;8.10;;;;;;;8.36;100.00;92337.75;5075850;28;21267;-80
2023/05/02 06:03:06;;;;;;;16.65;8.10;;;;;;;8.49;100.00;92347.59;5072793;28;20046;-81
2023/05/02 06:05:32;;;;;;;22.30;8.65;;;;;;;8.54;100.00;92348.28;5071232;28;20122;-80
2023/05/02 06:07:58;;;;;;;46.10;9.15;;;;;;;8.53;100.00;92341.53;5071956;28;20098;-80
2023/05/02 06:10:25;;;;;;;18.60;8.65;;;;;;;8.71;100.00;92357.50;5056349;28;20028;-80
2023/05/02 06:12:51;;;;;;;16.30;8.13;;;;;;;8.89;100.00;92363.84;5077768;28;20119;-80
2023/05/02 06:15:21;;;;;;;636.08;17.88;;;;;;;9.11;100.00;92363.34;5075111;28;20032;-80
2023/05/02 06:17:50;;;;;;;231.23;11.38;;;;;;;9.09;100.00;92368.84;5061472;28;20040;-79
2023/05/02 06:20:15;;;;;;;12.35;4.25;;;;;;;9.50;100.00;92359.72;5092852;28;20050;-79
2023/05/02 06:22:41;;;;;;;14.52;6.18;;;;;;;9.75;100.00;92375.06;5074658;28;20115;-80
2023/05/02 06:25:07;;;;;;;11.05;4.80;;;;;;;10.20;100.00;92378.06;5086616;28;20024;-81
2023/05/02 06:27:33;;;;;;;6.68;3.33;;;;;;;10.66;100.00;92376.53;5077643;28;20093;-80
2023/05/02 06:29:59;;;;;;;6.68;3.22;;;;;;;11.01;100.00;92376.94;5087501;28;20119;-79
2023/05/02 06:32:29;;;;;;;6.75;3.20;;;;;;;11.66;100.00;92381.97;5081373;28;20069;-80
2023/05/02 06:34:54;;;;;;;5.38;3.10;;;;;;;11.95;100.00;92383.47;5080434;28;20517;-80
2023/05/02 06:37:20;;;;;;;5.25;3.13;;;;;;;12.49;100.00;92389.56;5097710;28;20059;-80
2023/05/02 06:39:45;;;;;;;8.15;3.17;;;;;;;13.02;100.00;92384.59;5085427;28;20095;-80
2023/05/02 06:42:11;;;;;;;5.50;3.00;;;;;;;13.47;100.00;92389.72;5075916;28;20033;-80
2023/05/02 06:44:37;;;;;;;829.60;22.95;;;;;;;12.62;100.00;92401.06;5099229;28;20042;-80
2023/05/02 06:47:06;;;;;;;187.95;13.15;;;;;;;12.72;100.00;92389.53;5099814;28;20052;-80
2023/05/02 06:49:32;;;;;;;17.23;9.57;;;;;;;13.15;100.00;92396.06;5100581;28;20035;-79
2023/05/02 06:51:57;;;;;;;29.35;8.65;;;;;;;13.19;100.00;92391.75;5092626;28;20036;-80
2023/05/02 06:54:23;;;;;;;531.92;19.60;;;;;;;12.27;100.00;92395.59;5096853;28;20100;-80
2023/05/02 06:56:49;;;;;;;554.50;17.50;;;;;;;11.70;100.00;92392.63;5095553;28;20032;-80
2023/05/02 06:59:15;;;;;;;136.48;11.00;;;;;;;12.21;100.00;92396.78;5079567;28;20256;-80
2023/05/02 07:01:43;;;;;;;14.40;8.60;;;;;;;12.32;100.00;92397.34;5078927;28;20481;-80
2023/05/02 07:04:08;;;;;;;15.23;7.20;;;;;;;12.58;100.00;92400.13;5096466;28;20032;-80
2023/05/02 07:06:34;;;;;;;18.77;9.13;;;;;;;12.62;100.00;92406.31;5076045;28;20077;-80
2023/05/02 07:09:00;;;;;;;13.48;7.00;;;;;;;12.74;100.00;92402.38;5098442;28;20032;-80
2023/05/02 07:11:26;;;;;;;11.43;6.43;;;;;;;13.06;100.00;92407.34;5102357;28;20111;-80
2023/05/02 07:13:52;;;;;;;10.13;5.72;;;;;;;13.19;100.00;92415.41;5070890;28;20036;-79
2023/05/02 07:16:18;;;;;;;17.83;9.30;;;;;;;13.03;100.00;92415.81;5081229;28;20035;-79
2023/05/02 07:18:46;;;;;;;18.25;8.00;;;;;;;12.83;100.00;92414.47;5098248;28;20528;-82
2023/05/02 07:21:12;;;;;;;14.43;7.15;;;;;;;12.79;100.00;92404.84;5080792;28;20044;-80
2023/05/02 07:23:38;;;;;;;13.23;6.53;;;;;;;13.33;100.00;92405.59;5100738;28;20039;-81
2023/05/02 07:26:07;;;;;;;16.63;6.22;;;;;;;13.30;100.00;92419.34;5100505;28;20106;-80
2023/05/02 07:28:32;;;;;;;11.57;6.00;;;;;;;13.13;100.00;92410.28;5098377;28;20186;-80
2023/05/02 07:30:58;;;;;;;19.58;7.97;;;;;;;13.09;100.00;92421.72;5095883;28;20562;-79
2023/05/02 07:33:24;;;;;;;14.20;7.38;;;;;;;13.04;100.00;92411.34;5071665;28;20108;-80
2023/05/02 07:35:49;;;;;;;17.83;7.68;;;;;;;13.31;100.00;92400.66;5084755;28;20401;-80
2023/05/02 07:38:15;;;;;;;16.48;8.90;;;;;;;13.83;100.00;92404.50;5084235;28;20678;-78
2023/05/02 07:40:42;;;;;;;13.98;7.57;;;;;;;14.17;100.00;92411.63;5101879;28;20107;-79
2023/05/02 07:43:08;;;;;;;16.48;7.88;;;;;;;14.14;100.00;92407.00;5103121;28;20032;-81
2023/05/02 07:45:34;;;;;;;15.20;7.90;;;;;;;14.22;100.00;92406.19;5060042;28;20032;-80
2023/05/02 07:48:00;;;;;;;19.20;8.45;;;;;;;14.35;100.00;92409.78;5092778;28;20047;-81
2023/05/02 07:50:26;;;;;;;19.25;10.23;;;;;;;14.31;100.00;92414.09;5085455;28;20028;-79
2023/05/02 07:52:52;;;;;;;21.52;9.43;;;;;;;14.20;100.00;92413.63;5102234;28;20024;-81
2023/05/02 07:55:18;;;;;;;16.77;10.25;;;;;;;14.01;100.00;92419.22;5088436;28;20025;-80
2023/05/02 07:57:44;;;;;;;9.85;5.53;;;;;;;14.20;100.00;92408.38;5094253;28;20032;-81
2023/05/02 08:00:10;;;;;;;10.02;4.53;;;;;;;14.52;100.00;92416.88;5107520;28;20507;-80
2023/05/02 08:02:40;;;;;;;13.65;6.72;;;;;;;14.54;100.00;92406.81;5104000;28;20339;-81
2023/05/02 08:05:06;;;;;;;11.15;6.47;;;;;;;14.58;100.00;92408.53;5087533;28;20036;-80
2023/05/02 08:07:34;;;;;;;15.13;6.07;;;;;;;14.55;100.00;92419.69;5088115;28;20101;-82
2023/05/02 08:10:00;;;;;;;11.07;5.03;;;;;;;14.92;100.00;92420.09;5105927;28;20044;-81
2023/05/02 08:12:25;;;;;;;12.88;4.90;;;;;;;14.75;100.00;92422.78;5072777;28;20532;-81
2023/05/02 08:14:51;;;;;;;10.10;5.43;;;;;;;14.71;100.00;92406.81;5104100;28;20047;-79
2023/05/02 08:17:16;;;;;;;8.20;4.88;;;;;;;14.43;100.00;92418.75;5067045;28;20242;-80
2023/05/02 08:19:42;;;;;;;10.07;5.25;;;;;;;14.69;100.00;92408.97;5082715;28;20513;-81
2023/05/02 08:22:08;;;;;;;8.35;3.85;;;;;;;15.10;100.00;92415.53;5083539;28;20040;-80
2023/05/02 08:24:33;;;;;;;15.57;4.50;;;;;;;15.36;100.00;92419.97;5086116;28;20047;-81
2023/05/02 08:26:59;;;;;;;11.00;4.93;;;;;;;15.57;100.00;92426.06;5101137;28;20127;-80
2023/05/02 08:29:25;;;;;;;9.10;5.05;;;;;;;15.35;100.00;92415.75;5067010;28;20044;-81
2023/05/02 08:31:50;;;;;;;6.32;3.67;;;;;;;15.28;100.00;92426.81;5100971;28;20107;-80
2023/05/02 08:34:16;;;;;;;9.77;3.30;;;;;;;15.28;95.32;92412.84;5065169;28;20068;-80
2023/05/02 08:36:41;;;;;;;8.85;4.43;;;;;;;15.66;100.00;92417.34;5073628;28;20093;-78
2023/05/02 08:39:08;;;;;;;8.25;3.20;;;;;;;15.89;98.21;92412.56;5086030;28;20040;-78
2023/05/02 08:41:33;;;;;;;10.63;4.95;;;;;;;15.20;100.00;92423.13;5071634;28;20188;-77
2023/05/02 08:44:00;;;;;;;13.85;4.50;;;;;;;15.29;100.00;92417.03;5071973;28;20134;-76
2023/05/02 08:46:27;;;;;;;9.43;4.22;;;;;;;15.50;100.00;92425.78;5090641;28;20118;-78
2023/05/02 08:48:57;;;;;;;7.03;3.75;;;;;;;15.31;100.00;92433.31;5061092;28;20478;-77
2023/05/02 08:51:23;;;;;;;7.43;4.18;;;;;;;15.22;100.00;92432.56;5090705;28;20473;-78
2023/05/02 08:53:51;;;;;;;9.48;4.32;;;;;;;15.14;100.00;92424.38;5057154;28;20035;-78
2023/05/02 08:56:16;;;;;;;8.65;4.28;;;;;;;15.00;100.00;92423.81;5072462;28;20127;-77
2023/05/02 08:58:42;;;;;;;7.82;3.63;;;;;;;15.31;100.00;92431.47;5090913;28;20028;-77
2023/05/02 09:01:20;;;;;;;6.63;3.60;;;;;;;15.23;100.00;92431.50;5085812;28;20038;-77
2023/05/02 09:03:47;;;;;;;7.70;4.05;;;;;;;15.34;100.00;92432.69;5075526;28;20044;-78
2023/05/02 09:06:12;;;;;;;8.93;4.78;;;;;;;14.76;100.00;92435.63;5096598;28;20019;-78
2023/05/02 09:08:39;;;;;;;7.72;4.20;;;;;;;14.68;100.00;92428.53;5065403;28;20028;-77
2023/05/02 09:11:06;;;;;;;12.60;3.83;;;;;;;14.68;100.00;92433.78;5096323;28;20040;-78
2023/05/02 09:13:34;;;;;;;7.88;3.85;;;;;;;14.89;100.00;92427.88;5093798;28;20434;-81
2023/05/02 09:16:09;;;;;;;8.77;4.00;;;;;;;15.31;100.00;92439.38;5082064;28;20096;-78
2023/05/02 09:21:07;;;;;;;10.40;4.68;;;;;;;15.27;100.00;92440.31;5108396;28;20394;-79
2023/05/02 09:23:42;;;;;;;13.90;3.97;;;;;;;15.05;100.00;92444.72;5108676;28;20032;-79
2023/05/02 09:26:11;;;;;;;8.27;3.90;;;;;;;15.67;100.00;92435.50;5113683;28;20035;-80
2023/05/02 09:28:45;;;;;;;9.02;4.03;;;;;;;15.81;100.00;92438.69;5104633;28;20037;-78
2023/05/02 09:31:16;;;;;;;10.73;3.67;;;;;;;15.52;100.00;92446.59;5114478;28;20392;-78
2023/05/02 09:33:43;;;;;;;8.30;4.07;;;;;;;15.18;100.00;92445.63;5113169;28;20458;-78
2023/05/02 09:36:13;;;;;;;7.82;3.65;;;;;;;15.28;100.00;92455.03;5111552;28;20042;-77
2023/05/02 09:38:39;;;;;;;4.93;2.70;;;;;;;15.92;100.00;92444.41;5114847;28;20035;-78
2023/05/02 09:41:05;;;;;;;5.93;3.50;;;;;;;16.01;100.00;92455.66;5109243;28;20082;-78
2023/05/02 09:43:31;;;;;;;9.00;3.33;;;;;;;16.44;93.02;92451.19;5098472;28;20385;-79
2023/05/02 09:46:05;;;;;;;9.32;3.70;;;;;;;16.74;100.00;92443.94;5112619;28;20032;-77
2023/05/02 09:48:49;;;;;;;8.10;3.83;;;;;;;16.57;100.00;92444.88;5113483;28;20559;-78
2023/05/02 09:51:17;;;;;;;7.07;3.17;;;;;;;16.16;100.00;92449.03;5109355;28;20046;-78
2023/05/02 09:53:44;;;;;;;8.95;3.78;;;;;;;16.33;100.00;92461.38;5107318;28;20031;-78
2023/05/02 09:56:10;;;;;;;12.40;3.92;;;;;;;16.57;100.00;92447.50;5112651;28;20050;-77
2023/05/02 09:58:35;;;;;;;8.77;3.53;;;;;;;16.49;100.00;92463.44;5112030;28;20308;-77
2023/05/02 10:01:01;;;;;;;6.50;3.60;;;;;;;16.41;100.00;92449.19;5106806;28;20035;-77
2023/05/02 10:03:28;;;;;;;6.95;3.33;;;;;;;16.28;100.00;92448.34;5111667;28;20060;-77
2023/05/02 10:05:55;;;;;;;5.97;2.95;;;;;;;16.56;97.00;92448.59;5108503;28;20038;-77
2023/05/02 10:08:25;;;;;;;9.52;3.75;;;;;;;16.38;100.00;92457.75;5111075;28;20035;-77
2023/05/02 10:10:54;;;;;;;11.70;3.00;;;;;;;16.36;98.00;92460.72;5109401;28;20110;-77
2023/05/02 10:13:23;;;;;;;14.48;4.32;;;;;;;16.42;100.00;92461.31;5111026;28;20027;-77
2023/05/02 10:15:57;;;;;;;7.00;3.40;;;;;;;16.52;100.00;92452.97;5109588;28;20032;-78
2023/05/02 10:19:01;;;;;;;9.10;3.60;;;;;;;16.64;100.00;92454.94;5112100;28;20050;-77
2023/05/02 10:21:26;;;;;;;8.05;3.50;;;;;;;16.84;100.00;92464.72;5105055;28;20043;-78
2023/05/02 10:23:53;;;;;;;6.80;3.00;;;;;;;16.94;94.05;92463.53;5115917;28;20057;-78
2023/05/02 10:26:25;;;;;;;6.97;3.10;;;;;;;16.70;94.04;92447.56;5110215;28;20042;-78
2023/05/02 10:28:51;;;;;;;6.85;3.47;;;;;;;16.50;98.46;92454.41;5115903;28;20027;-78
2023/05/02 10:31:17;;;;;;;8.02;3.20;;;;;;;17.04;96.38;92449.13;5113415;28;20024;-79
2023/05/02 10:33:43;;;;;;;4.90;2.67;;;;;;;17.27;88.35;92455.59;5098735;28;20584;-78
2023/05/02 10:36:13;;;;;;;7.15;2.58;;;;;;;17.08;75.33;92444.72;5115087;28;20130;-78
2023/05/02 10:38:40;;;;;;;6.35;3.33;;;;;;;16.87;84.34;92441.38;5118831;28;20039;-78
2023/05/02 10:41:14;;;;;;;10.00;2.83;;;;;;;17.17;74.09;92445.41;5116605;28;20023;-77
2023/05/02 10:43:44;;;;;;;6.03;2.60;;;;;;;17.75;71.72;92444.59;5124052;28;20515;-78
2023/05/02 10:46:47;;;;;;;6.72;3.10;;;;;;;17.65;77.77;92443.94;5126020;28;20039;-76
2023/05/02 10:49:13;;;;;;;5.78;2.83;;;;;;;17.54;64.29;92442.84;5128025;28;20058;-78
2023/05/02 10:51:40;;;;;;;5.22;2.97;;;;;;;17.54;73.49;92437.53;5110374;28;20031;-77
2023/05/02 10:54:25;;;;;;;6.15;2.90;;;;;;;17.39;61.97;92446.88;5113152;28;20039;-79
2023/05/02 10:57:06;;;;;;;6.22;2.75;;;;;;;18.16;60.89;92440.19;5129119;28;20039;-78
2023/05/02 10:59:40;;;;;;;4.63;2.60;;;;;;;18.09;64.70;92441.50;5119454;28;20036;-78
2023/05/02 11:02:27;;;;;;;4.55;2.50;;;;;;;18.12;59.18;92437.41;5123376;28;20362;-78
2023/05/02 11:05:04;;;;;;;4.65;2.40;;;;;;;18.19;52.25;92428.91;5129004;28;20036;-77
2023/05/02 11:07:31;;;;;;;5.25;2.50;;;;;;;18.54;62.29;92431.03;5127631;28;20050;-78
2023/05/02 11:10:15;;;;;;;7.22;2.50;;;;;;;18.33;48.49;92442.59;5126493;28;20101;-78
2023/05/02 11:12:49;;;;;;;4.07;2.10;;;;;;;18.34;48.19;92430.09;5128282;28;20043;-78
2023/05/02 11:15:40;;;;;;;4.30;2.20;;;;;;;18.25;48.95;92414.34;5110028;28;20069;-77
2023/05/02 11:18:13;;;;;;;6.60;2.78;;;;;;;18.32;49.97;92422.47;5107653;28;20038;-78
2023/05/02 11:20:38;;;;;;;5.93;3.08;;;;;;;18.36;54.58;92428.66;5118754;28;20055;-78
2023/05/02 11:23:25;;;;;;;9.43;2.70;;;;;;;18.04;55.65;92427.75;5114152;28;20081;-77
2023/05/02 11:25:56;;;;;;;4.82;2.25;;;;;;;18.27;53.56;92422.72;5117522;28;20077;-78
2023/05/02 11:28:42;;;;;;;4.78;2.05;;;;;;;18.43;44.12;92412.94;5116241;28;20031;-77
2023/05/02 11:31:29;;;;;;;7.80;2.42;;;;;;;18.51;49.26;92400.69;5120059;28;20057;-78
2023/05/02 11:34:02;;;;;;;4.95;2.10;;;;;;;18.70;56.01;92414.06;5091347;28;20500;-77
2023/05/02 11:36:36;;;;;;;5.32;2.05;;;;;;;18.43;52.14;92417.50;5113474;28;20037;-77
2023/05/02 11:39:04;;;;;;;3.60;2.15;;;;;;;18.43;54.02;92412.94;5118340;28;20043;-77